createdAt,value
2023-03-31T00:00:24.446Z,97251.63
2023-03-31T00:03:34.552Z,97248.31
2023-03-31T00:06:43.064Z,97243.34
2023-03-31T00:10:10.394Z,97241.66
2023-03-31T00:13:22.389Z,97246.84
2023-03-31T00:16:29.913Z,97248.69
2023-03-31T00:19:36.293Z,97254.34
2023-03-31T00:22:47.082Z,97255.81
2023-03-31T00:25:55.699Z,97251.16
2023-03-31T00:29:04.556Z,97247.78
2023-03-31T00:32:11.088Z,97240.84
2023-03-31T00:35:18.257Z,97245.72
2023-03-31T00:38:24.962Z,97246.97
2023-03-31T00:41:34.775Z,97245.50
2023-03-31T00:45:18.415Z,97239.25
2023-03-31T00:48:27.972Z,97238.13
2023-03-31T00:51:38.829Z,97242.41
2023-03-31T00:54:52.733Z,97245.34
2023-03-31T00:58:04.431Z,97243.25
2023-03-31T01:01:11.449Z,97238.91
2023-03-31T01:04:24.298Z,97249.84
2023-03-31T01:07:43.817Z,97239.41
2023-03-31T01:10:57.143Z,97232.91
2023-03-31T01:14:07.224Z,97232.31
2023-03-31T01:17:19.623Z,97234.63
2023-03-31T01:20:51.095Z,97220.84
2023-03-31T01:24:36.160Z,97218.88
2023-03-31T01:28:25.104Z,97224.09
2023-03-31T01:32:19.185Z,97225.69
2023-03-31T01:36:12.795Z,97224.94
2023-03-31T01:40:14.027Z,97222.19
2023-03-31T01:43:32.495Z,97230.38
2023-03-31T01:46:55.473Z,97232.94
2023-03-31T01:50:14.303Z,97222.78
2023-03-31T01:53:35.638Z,97230.19
2023-03-31T01:56:56.101Z,97225.91
2023-03-31T02:00:11.893Z,97222.06
2023-03-31T02:03:33.385Z,97227.56
2023-03-31T02:06:50.333Z,97227.56
2023-03-31T02:10:16.354Z,97222.63
2023-03-31T02:13:34.620Z,97225.81
2023-03-31T02:16:48.117Z,97220.97
2023-03-31T02:19:57.371Z,97223.53
2023-03-31T02:23:05.843Z,97221.69
2023-03-31T02:26:19.752Z,97209.19
2023-03-31T02:29:31.908Z,97212.13
2023-03-31T02:32:43.921Z,97209.63
2023-03-31T02:35:51.954Z,97214.56
2023-03-31T02:39:09.568Z,97206.53
2023-03-31T02:42:16.747Z,97202.13
2023-03-31T02:45:48.420Z,97204.16
2023-03-31T02:49:05.104Z,97199.50
2023-03-31T02:53:01.655Z,97209.19
2023-03-31T02:56:44.019Z,97198.97
2023-03-31T03:00:20.387Z,97199.41
2023-03-31T03:03:53.359Z,97204.16
2023-03-31T03:07:15.859Z,97194.19
2023-03-31T03:10:43.801Z,97201.97
2023-03-31T03:14:05.805Z,97192.19
2023-03-31T03:17:21.849Z,97198.31
2023-03-31T03:20:30.777Z,97194.94
2023-03-31T03:23:37.628Z,97195.66
2023-03-31T03:26:45.111Z,97188.88
2023-03-31T03:29:52.126Z,97187.31
2023-03-31T03:32:59.196Z,97193.72
2023-03-31T03:36:12.965Z,97182.19
2023-03-31T03:39:19.929Z,97185.06
2023-03-31T03:42:26.911Z,97188.22
2023-03-31T03:45:32.880Z,97183.72
2023-03-31T03:48:41.988Z,97190.94
2023-03-31T03:51:51.034Z,97171.91
2023-03-31T03:54:57.882Z,97171.75
2023-03-31T03:58:03.935Z,97168.22
2023-03-31T04:01:10.952Z,97172.47
2023-03-31T04:04:17.171Z,97168.38
2023-03-31T04:07:27.385Z,97169.72
2023-03-31T04:10:33.594Z,97161.69
2023-03-31T04:13:40.585Z,97163.97
2023-03-31T04:16:47.111Z,97164.19
2023-03-31T04:19:54.063Z,97159.25
2023-03-31T04:23:03.010Z,97159.56
2023-03-31T04:26:10.705Z,97156.31
2023-03-31T04:29:20.934Z,97157.44
2023-03-31T04:32:28.686Z,97155.44
2023-03-31T04:35:49.998Z,97152.78
2023-03-31T04:38:59.551Z,97143.19
2023-03-31T04:42:05.618Z,97151.31
2023-03-31T04:45:14.296Z,97141.91
2023-03-31T04:48:20.379Z,97143.47
2023-03-31T04:51:27.169Z,97141.47
2023-03-31T04:54:35.790Z,97129.06
2023-03-31T04:57:42.646Z,97134.59
2023-03-31T05:00:48.708Z,97134.34
2023-03-31T05:03:55.632Z,97133.47
2023-03-31T05:07:01.732Z,97117.69
2023-03-31T05:10:12.664Z,97122.19
2023-03-31T05:13:19.198Z,97123.28
2023-03-31T05:16:26.192Z,97122.84
2023-03-31T05:19:32.602Z,97117.66
2023-03-31T05:22:43.858Z,97117.22
2023-03-31T05:25:56.704Z,97124.88
2023-03-31T05:29:08.720Z,97103.91
2023-03-31T05:32:15.058Z,97099.31
2023-03-31T05:35:22.502Z,97108.00
2023-03-31T05:38:32.028Z,97107.84
2023-03-31T05:41:41.544Z,97105.31
2023-03-31T05:44:47.740Z,97106.09
2023-03-31T05:47:57.698Z,97102.84
2023-03-31T05:51:14.339Z,97102.59
2023-03-31T05:54:21.219Z,97103.13
2023-03-31T05:57:30.015Z,97102.09
2023-03-31T06:00:40.465Z,97098.97
2023-03-31T06:03:46.685Z,97093.09
2023-03-31T06:06:54.470Z,97092.69
2023-03-31T06:10:00.645Z,97098.66
2023-03-31T06:13:10.386Z,97097.00
2023-03-31T06:16:19.277Z,97095.34
2023-03-31T06:19:32.447Z,97090.94
2023-03-31T06:22:42.698Z,97099.72
2023-03-31T06:25:51.762Z,97098.34
2023-03-31T06:29:10.456Z,97101.06
2023-03-31T06:32:17.562Z,97091.00
2023-03-31T06:35:23.602Z,97091.88
2023-03-31T06:38:30.891Z,97093.41
2023-03-31T06:41:43.778Z,97078.91
2023-03-31T06:44:53.398Z,97083.38
2023-03-31T06:47:59.573Z,97086.09
2023-03-31T06:51:11.184Z,97088.03
2023-03-31T06:54:17.179Z,97083.75
2023-03-31T06:57:24.300Z,97084.84
2023-03-31T07:00:33.280Z,97077.97
2023-03-31T07:03:40.193Z,97077.44
2023-03-31T07:06:46.230Z,97074.81
2023-03-31T07:09:56.163Z,97079.97
2023-03-31T07:13:09.390Z,97082.41
2023-03-31T07:16:18.995Z,97075.16
2023-03-31T07:19:25.155Z,97070.31
2023-03-31T07:22:32.074Z,97067.69
2023-03-31T07:25:39.293Z,97060.28
2023-03-31T07:28:46.235Z,97065.59
2023-03-31T07:31:55.018Z,97059.41
2023-03-31T07:35:02.089Z,97058.47
2023-03-31T07:38:08.343Z,97053.56
2023-03-31T07:41:17.407Z,97062.56
2023-03-31T07:44:23.753Z,97055.97
2023-03-31T07:47:33.318Z,97047.00
2023-03-31T07:50:39.555Z,97053.66
2023-03-31T07:53:55.258Z,97054.84
2023-03-31T07:57:03.843Z,97058.56
2023-03-31T08:00:14.435Z,97057.41
2023-03-31T08:03:23.100Z,97046.31
2023-03-31T08:06:30.526Z,97044.41
2023-03-31T08:09:39.018Z,97037.56
2023-03-31T08:12:46.555Z,97031.88
2023-03-31T08:15:52.646Z,97022.88
2023-03-31T08:19:02.205Z,97008.84
2023-03-31T08:22:17.421Z,97010.63
2023-03-31T08:25:24.673Z,96992.81
2023-03-31T08:28:30.720Z,96991.81
2023-03-31T08:31:45.017Z,96979.84
2023-03-31T08:34:56.412Z,96976.69
2023-03-31T08:38:03.252Z,96969.63
2023-03-31T08:41:31.076Z,96970.97
2023-03-31T08:44:48.741Z,96966.25
2023-03-31T08:48:03.564Z,96951.53
2023-03-31T08:51:23.151Z,96950.38
2023-03-31T08:54:44.527Z,96948.59
2023-03-31T08:58:06.095Z,96949.16
2023-03-31T09:01:44.148Z,96942.16
2023-03-31T09:05:56.723Z,96936.69
2023-03-31T09:09:19.098Z,96936.69
2023-03-31T09:12:41.544Z,96921.88
2023-03-31T09:16:11.117Z,96923.03
2023-03-31T09:19:41.731Z,96915.09
2023-03-31T09:22:59.041Z,96913.56
2023-03-31T09:26:21.548Z,96917.69
2023-03-31T09:29:40.935Z,96909.59
2023-03-31T09:32:56.092Z,96904.75
2023-03-31T09:36:02.654Z,96900.88
2023-03-31T09:39:13.639Z,96899.81
2023-03-31T09:42:22.829Z,96892.03
2023-03-31T09:45:34.272Z,96896.22
2023-03-31T09:48:45.916Z,96884.72
2023-03-31T09:52:13.154Z,96879.63
2023-03-31T09:55:38.792Z,96879.34
2023-03-31T09:58:49.989Z,96868.38
2023-03-31T10:02:03.272Z,96878.16
2023-03-31T10:05:25.373Z,96878.19
2023-03-31T10:08:36.962Z,96866.56
2023-03-31T10:11:56.793Z,96862.03
2023-03-31T10:15:24.437Z,96858.53
2023-03-31T10:18:44.650Z,96861.63
2023-03-31T10:21:58.873Z,96849.91
2023-03-31T10:25:19.610Z,96847.44
2023-03-31T10:28:27.229Z,96844.34
2023-03-31T10:31:44.574Z,96846.66
2023-03-31T10:34:57.566Z,96840.16
2023-03-31T10:38:14.051Z,96842.00
2023-03-31T10:41:25.625Z,96838.38
2023-03-31T10:44:40.060Z,96830.34
2023-03-31T10:47:57.137Z,96825.13
2023-03-31T10:51:15.218Z,96827.31
2023-03-31T10:54:21.793Z,96823.28
2023-03-31T10:57:48.595Z,96821.81
2023-03-31T11:01:17.757Z,96821.09
2023-03-31T11:05:01.220Z,96812.56
2023-03-31T11:08:52.553Z,96809.69
2023-03-31T11:12:19.368Z,96802.28
2023-03-31T11:15:37.956Z,96798.34
2023-03-31T11:19:09.415Z,96790.94
2023-03-31T11:22:33.474Z,96787.69
2023-03-31T11:25:54.770Z,96780.00
2023-03-31T11:29:27.209Z,96774.22
2023-03-31T11:32:56.955Z,96773.16
2023-03-31T11:36:33.598Z,96763.31
2023-03-31T11:40:11.576Z,96767.38
2023-03-31T11:43:44.841Z,96740.22
2023-03-31T11:47:05.063Z,96746.16
2023-03-31T11:50:22.355Z,96744.59
2023-03-31T11:53:37.538Z,96733.56
2023-03-31T11:56:47.556Z,96733.13
2023-03-31T12:00:02.713Z,96724.03
2023-03-31T12:03:27.449Z,96711.22
2023-03-31T12:06:45.408Z,96710.25
2023-03-31T12:10:06.221Z,96701.34
2023-03-31T12:13:48.687Z,96703.09
2023-03-31T12:17:07.585Z,96689.53
2023-03-31T12:20:32.954Z,96690.19
2023-03-31T12:23:47.589Z,96679.94
2023-03-31T12:27:10.105Z,96678.47
2023-03-31T12:30:34.848Z,96671.91
2023-03-31T12:33:54.451Z,96660.72
2023-03-31T12:37:31.894Z,96660.56
2023-03-31T12:40:57.929Z,96649.97
2023-03-31T12:44:27.277Z,96659.63
2023-03-31T12:48:17.189Z,96657.56
2023-03-31T12:51:56.614Z,96649.16
2023-03-31T12:55:39.383Z,96634.03
2023-03-31T12:58:49.376Z,96640.44
2023-03-31T13:02:29.158Z,96624.94
2023-03-31T13:05:50.749Z,96624.41
2023-03-31T13:09:01.288Z,96625.25
2023-03-31T13:12:11.949Z,96642.22
2023-03-31T13:15:20.502Z,96631.34
2023-03-31T13:18:28.631Z,96625.38
2023-03-31T13:21:58.829Z,96625.22
2023-03-31T13:25:41.426Z,96620.38
2023-03-31T13:28:48.315Z,96615.53
2023-03-31T13:32:32.653Z,96615.47
2023-03-31T13:35:53.497Z,96614.28
2023-03-31T13:39:30.103Z,96599.41
2023-03-31T13:43:12.399Z,96593.28
2023-03-31T13:47:05.182Z,96589.66
2023-03-31T13:50:39.290Z,96594.13
2023-03-31T13:54:25.811Z,96587.28
2023-03-31T13:58:29.922Z,96585.16
2023-03-31T14:02:38.993Z,96587.22
2023-03-31T14:05:53.977Z,96570.63
2023-03-31T14:09:09.733Z,96561.09
2023-03-31T14:12:26.567Z,96548.78
2023-03-31T14:15:33.917Z,96554.19
2023-03-31T14:19:05.224Z,96546.38
2023-03-31T14:22:36.339Z,96538.78
2023-03-31T14:26:02.298Z,96544.69
2023-03-31T14:29:27.298Z,96540.38
2023-03-31T14:32:51.444Z,96527.78
2023-03-31T14:36:08.591Z,96518.13
2023-03-31T14:39:21.538Z,96507.63
2023-03-31T14:42:41.291Z,96511.09
2023-03-31T14:45:51.980Z,96498.81
2023-03-31T14:48:58.059Z,96473.66
2023-03-31T14:52:17.321Z,96478.28
2023-03-31T14:55:54.392Z,96474.75
2023-03-31T14:59:06.682Z,96472.69
2023-03-31T15:02:25.109Z,96468.19
2023-03-31T15:05:37.393Z,96470.53
2023-03-31T15:08:44.835Z,96474.53
2023-03-31T15:12:01.803Z,96458.72
2023-03-31T15:15:21.533Z,96456.19
2023-03-31T15:18:31.189Z,96455.69
2023-03-31T15:21:42.465Z,96433.34
2023-03-31T15:24:50.110Z,96422.34
2023-03-31T15:28:06.910Z,96421.94
2023-03-31T15:31:19.133Z,96415.59
2023-03-31T15:34:33.824Z,96411.69
2023-03-31T15:37:45.946Z,96402.28
2023-03-31T15:40:59.769Z,96400.97
2023-03-31T15:44:31.559Z,96396.28
2023-03-31T15:47:55.591Z,96378.72
2023-03-31T15:51:10.547Z,96382.75
2023-03-31T15:54:37.177Z,96369.56
2023-03-31T15:57:48.153Z,96366.00
2023-03-31T16:01:09.397Z,96370.72
2023-03-31T16:04:21.302Z,96368.94
2023-03-31T16:07:33.807Z,96369.75
2023-03-31T16:10:40.860Z,96368.84
2023-03-31T16:13:55.628Z,96360.63
2023-03-31T16:17:12.258Z,96351.00
2023-03-31T16:20:29.585Z,96346.53
2023-03-31T16:23:51.709Z,96348.59
2023-03-31T16:27:06.665Z,96346.50
2023-03-31T16:30:27.722Z,96347.81
2023-03-31T16:33:56.768Z,96347.25
2023-03-31T16:37:11.804Z,96335.03
2023-03-31T16:40:18.078Z,96330.63
2023-03-31T16:43:27.604Z,96327.13
2023-03-31T16:46:33.621Z,96329.22
2023-03-31T16:49:40.653Z,96323.75
2023-03-31T16:52:50.279Z,96314.28
2023-03-31T16:55:58.662Z,96307.44
2023-03-31T16:59:05.148Z,96310.78
2023-03-31T17:02:14.691Z,96299.72
2023-03-31T17:05:21.186Z,96287.53
2023-03-31T17:08:40.512Z,96284.84
2023-03-31T17:11:46.562Z,96287.06
2023-03-31T17:14:53.567Z,96281.88
2023-03-31T17:18:01.131Z,96282.47
2023-03-31T17:21:12.001Z,96279.34
2023-03-31T17:24:20.928Z,96285.75
2023-03-31T17:27:28.285Z,96292.25
2023-03-31T17:30:35.524Z,96277.66
2023-03-31T17:33:44.059Z,96286.97
2023-03-31T17:36:51.045Z,96281.63
2023-03-31T17:40:00.526Z,96301.56
2023-03-31T17:43:06.663Z,96308.06
2023-03-31T17:46:16.453Z,96316.97
2023-03-31T17:49:23.604Z,96335.94
2023-03-31T17:52:30.548Z,96343.34
2023-03-31T17:55:39.871Z,96318.72
2023-03-31T17:58:47.397Z,96299.25
2023-03-31T18:01:54.615Z,96294.19
2023-03-31T18:05:03.712Z,96310.13
2023-03-31T18:08:12.634Z,96300.06
2023-03-31T18:11:22.338Z,96294.44
2023-03-31T18:14:33.077Z,96292.09
2023-03-31T18:17:43.529Z,96284.88
2023-03-31T18:20:50.053Z,96292.19
2023-03-31T18:23:57.006Z,96296.88
2023-03-31T18:27:05.957Z,96294.13
2023-03-31T18:30:15.060Z,96299.19
2023-03-31T18:33:21.995Z,96298.25
2023-03-31T18:36:43.029Z,96288.66
2023-03-31T18:39:49.425Z,96282.94
2023-03-31T18:42:59.526Z,96280.34
2023-03-31T18:46:05.982Z,96276.22
2023-03-31T18:49:17.912Z,96265.22
2023-03-31T18:52:29.349Z,96267.28
2023-03-31T18:55:39.317Z,96270.72
2023-03-31T18:58:48.155Z,96264.19
2023-03-31T19:01:56.550Z,96264.75
2023-03-31T19:05:09.772Z,96270.88
2023-03-31T19:08:18.431Z,96272.25
2023-03-31T19:11:41.629Z,96252.53
2023-03-31T19:14:51.292Z,96258.72
2023-03-31T19:17:57.916Z,96257.25
2023-03-31T19:21:06.747Z,96261.34
2023-03-31T19:24:13.552Z,96260.69
2023-03-31T19:27:20.550Z,96262.75
2023-03-31T19:30:30.428Z,96254.63
2023-03-31T19:33:38.311Z,96254.88
2023-03-31T19:36:52.936Z,96257.59
2023-03-31T19:40:02.896Z,96259.59
2023-03-31T19:43:18.393Z,96253.41
2023-03-31T19:46:28.291Z,96254.72
2023-03-31T19:49:34.720Z,96254.28
2023-03-31T19:52:42.591Z,96240.84
2023-03-31T19:55:59.415Z,96249.19
2023-03-31T19:59:06.472Z,96246.09
2023-03-31T20:02:16.957Z,96238.25
2023-03-31T20:05:24.121Z,96250.06
2023-03-31T20:08:30.299Z,96254.88
2023-03-31T20:11:37.761Z,96256.19
2023-03-31T20:14:44.247Z,96258.63
2023-03-31T20:17:54.233Z,96256.94
2023-03-31T20:21:11.594Z,96260.03
2023-03-31T20:24:29.349Z,96253.97
2023-03-31T20:27:35.499Z,96267.25
2023-03-31T20:30:42.420Z,96267.63
2023-03-31T20:33:52.520Z,96266.47
2023-03-31T20:36:59.636Z,96263.72
2023-03-31T20:40:06.353Z,96260.84
2023-03-31T20:43:16.444Z,96263.72
2023-03-31T20:46:25.305Z,96272.38
2023-03-31T20:49:37.761Z,96267.63
2023-03-31T20:52:46.210Z,96277.56
2023-03-31T20:55:54.215Z,96283.16
2023-03-31T20:59:02.609Z,96292.44
2023-03-31T21:02:09.550Z,96279.97
2023-03-31T21:05:18.456Z,96296.72
2023-03-31T21:08:25.537Z,96288.00
2023-03-31T21:11:33.153Z,96297.81
2023-03-31T21:14:40.550Z,96288.88
2023-03-31T21:17:46.961Z,96283.97
2023-03-31T21:21:00.304Z,96278.09
2023-03-31T21:24:06.371Z,96285.28
2023-03-31T21:27:13.288Z,96289.94
2023-03-31T21:30:19.662Z,96289.69
2023-03-31T21:33:28.921Z,96283.22
2023-03-31T21:36:37.609Z,96295.69
2023-03-31T21:39:45.678Z,96296.28
2023-03-31T21:42:51.758Z,96309.03
2023-03-31T21:46:05.474Z,96305.13
2023-03-31T21:49:16.704Z,96302.31
2023-03-31T21:52:26.939Z,96305.81
2023-03-31T21:55:33.695Z,96299.88
2023-03-31T21:58:40.844Z,96301.59
2023-03-31T22:01:47.503Z,96311.13
2023-03-31T22:04:54.505Z,96301.56
2023-03-31T22:08:03.488Z,96292.00
2023-03-31T22:11:14.038Z,96292.00
2023-03-31T22:14:20.339Z,96289.03
2023-03-31T22:17:28.284Z,96297.22
2023-03-31T22:20:34.460Z,96294.19
2023-03-31T22:23:43.933Z,96301.91
2023-03-31T22:26:50.109Z,96317.44
2023-03-31T22:29:57.093Z,96327.25
2023-03-31T22:33:04.256Z,96323.56
2023-03-31T22:36:12.193Z,96323.41
2023-03-31T22:39:21.875Z,96322.06
2023-03-31T22:42:28.883Z,96322.44
2023-03-31T22:45:35.014Z,96326.97
2023-03-31T22:48:41.876Z,96323.72
2023-03-31T22:51:50.317Z,96331.88
2023-03-31T22:54:59.856Z,96331.47
2023-03-31T22:58:06.194Z,96317.22
2023-03-31T23:01:18.100Z,96323.94
2023-03-31T23:04:25.098Z,96307.41
2023-03-31T23:07:32.438Z,96305.41
2023-03-31T23:10:45.506Z,96310.91
2023-03-31T23:13:52.466Z,96319.91
2023-03-31T23:16:58.617Z,96312.94
2023-03-31T23:20:06.767Z,96312.75
2023-03-31T23:23:12.866Z,96307.66
2023-03-31T23:26:23.501Z,96317.66
2023-03-31T23:29:31.052Z,96292.59
2023-03-31T23:32:38.080Z,96301.75
2023-03-31T23:35:44.521Z,96288.91
2023-03-31T23:38:52.725Z,96296.03
2023-03-31T23:42:01.482Z,96290.97
2023-03-31T23:45:10.350Z,96288.91
2023-03-31T23:48:17.665Z,96289.56
2023-03-31T23:51:24.828Z,96300.34
2023-03-31T23:54:31.877Z,96275.28
2023-03-31T23:57:41.647Z,96289.16
